createdAt,value
2022-09-12T00:00:51.159Z,12.10
2022-09-12T00:03:17.640Z,12.12
2022-09-12T00:05:46.241Z,12.11
2022-09-12T00:08:13.693Z,12.06
2022-09-12T00:10:41.566Z,12.06
2022-09-12T00:13:08.707Z,11.94
2022-09-12T00:15:42.896Z,11.82
2022-09-12T00:18:13.361Z,11.98
2022-09-12T00:20:45.665Z,11.95
2022-09-12T00:23:12.171Z,11.98
2022-09-12T00:25:44.127Z,11.96
2022-09-12T00:28:11.739Z,12.02
2022-09-12T00:30:45.820Z,11.93
2022-09-12T00:33:12.611Z,11.83
2022-09-12T00:35:49.910Z,11.88
2022-09-12T00:38:17.383Z,11.81
2022-09-12T00:40:44.729Z,11.80
2022-09-12T00:43:15.140Z,11.74
2022-09-12T00:45:42.635Z,11.73
2022-09-12T00:48:22.290Z,11.70
2022-09-12T00:50:49.910Z,11.73
2022-09-12T00:53:16.759Z,11.79
2022-09-12T00:55:45.774Z,11.84
2022-09-12T00:58:23.225Z,11.87
2022-09-12T01:00:49.925Z,11.91
2022-09-12T01:03:19.462Z,11.76
2022-09-12T01:06:04.840Z,11.66
2022-09-12T01:08:33.159Z,11.80
2022-09-12T01:10:59.851Z,11.80
2022-09-12T01:13:26.889Z,11.80
2022-09-12T01:15:54.286Z,11.77
2022-09-12T01:19:09.123Z,11.69
2022-09-12T01:22:10.809Z,11.65
2022-09-12T01:24:53.556Z,11.72
2022-09-12T01:27:48.100Z,11.59
2022-09-12T01:30:18.188Z,11.54
2022-09-12T01:32:55.346Z,11.55
2022-09-12T01:35:42.603Z,11.50
2022-09-12T01:38:12.514Z,11.49
2022-09-12T01:40:51.934Z,11.47
2022-09-12T01:43:28.771Z,11.47
2022-09-12T01:46:02.579Z,11.40
2022-09-12T01:48:39.017Z,11.48
2022-09-12T01:51:31.567Z,11.46
2022-09-12T01:54:05.756Z,11.36
2022-09-12T01:56:36.041Z,11.33
2022-09-12T01:59:13.568Z,11.27
2022-09-12T02:01:48.067Z,11.25
2022-09-12T02:04:23.192Z,11.19
2022-09-12T02:06:55.306Z,11.13
2022-09-12T02:09:40.154Z,11.15
2022-09-12T02:12:11.441Z,11.09
2022-09-12T02:14:46.039Z,10.95
2022-09-12T02:17:16.606Z,10.96
2022-09-12T02:19:47.341Z,10.96
2022-09-12T02:22:17.963Z,10.91
2022-09-12T02:24:48.091Z,10.93
2022-09-12T02:27:19.752Z,10.93
2022-09-12T02:29:46.488Z,10.83
2022-09-12T02:32:21.079Z,10.75
2022-09-12T02:34:49.490Z,10.82
2022-09-12T02:37:33.525Z,10.81
2022-09-12T02:40:00.850Z,10.79
2022-09-12T02:42:27.359Z,10.71
2022-09-12T02:44:56.596Z,10.67
2022-09-12T02:47:36.546Z,10.65
2022-09-12T02:50:05.421Z,10.59
2022-09-12T02:52:32.235Z,10.60
2022-09-12T02:54:59.651Z,10.58
2022-09-12T02:57:26.363Z,10.63
2022-09-12T02:59:57.361Z,10.60
2022-09-12T03:02:51.637Z,10.52
2022-09-12T03:05:27.036Z,10.58
2022-09-12T03:08:05.523Z,10.45
2022-09-12T03:10:36.758Z,10.51
2022-09-12T03:13:25.944Z,10.52
2022-09-12T03:16:01.517Z,10.57
2022-09-12T03:18:51.859Z,10.51
2022-09-12T03:21:30.322Z,10.48
2022-09-12T03:24:12.523Z,10.43
2022-09-12T03:26:49.209Z,10.33
2022-09-12T03:29:18.491Z,10.33
2022-09-12T03:32:03.289Z,10.43
2022-09-12T03:34:29.834Z,10.40
2022-09-12T03:36:57.007Z,10.35
2022-09-12T03:39:24.600Z,10.35
2022-09-12T03:41:51.291Z,10.41
2022-09-12T03:44:18.279Z,10.42
2022-09-12T03:46:45.044Z,10.37
2022-09-12T03:49:12.043Z,10.31
2022-09-12T03:51:39.331Z,10.36
2022-09-12T03:54:06.201Z,10.35
2022-09-12T03:56:32.837Z,10.18
2022-09-12T03:58:59.358Z,10.16
2022-09-12T04:01:25.779Z,10.22
2022-09-12T04:03:52.594Z,10.13
2022-09-12T04:06:22.457Z,10.08
2022-09-12T04:08:51.943Z,10.12
2022-09-12T04:11:20.466Z,10.12
2022-09-12T04:13:47.721Z,10.09
2022-09-12T04:16:15.689Z,10.12
2022-09-12T04:18:42.471Z,10.08
2022-09-12T04:21:12.604Z,10.13
2022-09-12T04:23:39.147Z,10.10
2022-09-12T04:26:09.208Z,10.06
2022-09-12T04:28:37.683Z,10.09
2022-09-12T04:31:07.636Z,10.12
2022-09-12T04:33:35.394Z,10.08
2022-09-12T04:36:10.746Z,10.08
2022-09-12T04:38:37.751Z,10.02
2022-09-12T04:41:15.548Z,10.01
2022-09-12T04:43:43.191Z,10.05
2022-09-12T04:46:11.466Z,10.05
2022-09-12T04:48:38.555Z,10.05
2022-09-12T04:51:14.350Z,10.06
2022-09-12T04:53:41.442Z,10.09
2022-09-12T04:56:09.967Z,10.13
2022-09-12T04:58:37.261Z,10.19
2022-09-12T05:01:14.991Z,10.18
2022-09-12T05:03:45.420Z,10.22
2022-09-12T05:06:18.238Z,10.30
2022-09-12T05:08:45.115Z,10.31
2022-09-12T05:11:14.769Z,10.30
2022-09-12T05:13:41.664Z,10.22
2022-09-12T05:16:11.371Z,10.20
2022-09-12T05:18:38.706Z,10.16
2022-09-12T05:21:09.330Z,10.24
2022-09-12T05:23:36.378Z,10.25
2022-09-12T05:26:05.382Z,10.27
2022-09-12T05:28:37.443Z,10.26
2022-09-12T05:31:15.262Z,10.38
2022-09-12T05:33:43.547Z,10.44
2022-09-12T05:36:13.251Z,10.51
2022-09-12T05:38:39.911Z,10.55
2022-09-12T05:41:16.930Z,10.55
2022-09-12T05:43:45.959Z,10.64
2022-09-12T05:46:17.230Z,10.70
2022-09-12T05:48:45.423Z,10.80
2022-09-12T05:51:21.025Z,10.70
2022-09-12T05:53:50.466Z,10.63
2022-09-12T05:56:25.530Z,10.74
2022-09-12T05:59:01.838Z,10.83
2022-09-12T06:01:30.966Z,11.01
2022-09-12T06:04:02.415Z,11.19
2022-09-12T06:06:30.272Z,11.19
2022-09-12T06:08:59.099Z,11.29
2022-09-12T06:11:28.313Z,11.22
2022-09-12T06:13:57.127Z,11.29
2022-09-12T06:16:28.922Z,11.49
2022-09-12T06:18:57.601Z,11.66
2022-09-12T06:21:26.547Z,11.67
2022-09-12T06:23:56.089Z,11.68
2022-09-12T06:26:23.572Z,11.72
2022-09-12T06:28:50.551Z,11.53
2022-09-12T06:31:19.000Z,11.84
2022-09-12T06:33:48.155Z,11.93
2022-09-12T06:36:21.296Z,11.73
2022-09-12T06:38:48.821Z,11.87
2022-09-12T06:41:15.863Z,11.79
2022-09-12T06:43:42.790Z,11.73
2022-09-12T06:46:10.617Z,11.99
2022-09-12T06:48:41.540Z,11.98
2022-09-12T06:51:14.081Z,11.88
2022-09-12T06:53:41.251Z,12.04
2022-09-12T06:56:12.350Z,12.19
2022-09-12T06:58:39.752Z,12.32
2022-09-12T07:01:15.497Z,12.26
2022-09-12T07:03:43.133Z,12.46
2022-09-12T07:06:12.095Z,12.64
2022-09-12T07:08:39.562Z,12.77
2022-09-12T07:11:11.118Z,12.89
2022-09-12T07:13:38.721Z,12.79
2022-09-12T07:16:06.125Z,12.67
2022-09-12T07:18:38.030Z,13.03
2022-09-12T07:21:06.717Z,13.01
2022-09-12T07:23:33.258Z,12.96
2022-09-12T07:26:00.938Z,12.99
2022-09-12T07:28:30.219Z,13.36
2022-09-12T07:30:57.311Z,13.35
2022-09-12T07:33:27.666Z,13.32
2022-09-12T07:35:54.470Z,13.38
2022-09-12T07:38:21.715Z,13.55
2022-09-12T07:40:48.351Z,13.55
2022-09-12T07:43:14.798Z,13.52
2022-09-12T07:45:42.369Z,13.88
2022-09-12T07:48:09.407Z,13.98
2022-09-12T07:50:36.782Z,13.99
2022-09-12T07:53:04.132Z,14.27
2022-09-12T07:55:31.161Z,14.39
2022-09-12T07:57:57.845Z,14.40
2022-09-12T08:00:24.637Z,14.21
2022-09-12T08:02:52.443Z,14.29
2022-09-12T08:05:20.652Z,14.49
2022-09-12T08:07:47.538Z,14.46
2022-09-12T08:10:13.970Z,14.51
2022-09-12T08:12:40.454Z,14.55
2022-09-12T08:15:07.253Z,14.57
2022-09-12T08:17:33.658Z,14.56
2022-09-12T08:20:00.055Z,14.65
2022-09-12T08:22:26.460Z,14.94
2022-09-12T08:24:53.582Z,14.60
2022-09-12T08:27:19.965Z,14.79
2022-09-12T08:29:46.362Z,14.59
2022-09-12T08:32:12.797Z,14.86
2022-09-12T08:34:39.296Z,15.05
2022-09-12T08:37:05.824Z,15.28
2022-09-12T08:39:33.091Z,15.63
2022-09-12T08:42:05.026Z,15.92
2022-09-12T08:44:51.014Z,15.92
2022-09-12T08:47:36.475Z,15.83
2022-09-12T08:50:12.094Z,16.10
2022-09-12T08:52:58.485Z,16.29
2022-09-12T08:55:36.146Z,16.28
2022-09-12T08:58:20.206Z,16.52
2022-09-12T09:00:55.830Z,16.46
2022-09-12T09:03:47.015Z,16.41
2022-09-12T09:06:38.440Z,16.58
2022-09-12T09:09:11.938Z,16.73
2022-09-12T09:11:54.525Z,17.26
2022-09-12T09:14:51.370Z,17.40
2022-09-12T09:17:41.011Z,17.79
2022-09-12T09:20:41.228Z,17.62
2022-09-12T09:23:31.864Z,17.84
2022-09-12T09:26:04.928Z,18.03
2022-09-12T09:28:39.749Z,17.85
2022-09-12T09:31:15.080Z,17.85
2022-09-12T09:33:42.024Z,18.30
2022-09-12T09:36:23.909Z,18.06
2022-09-12T09:39:00.774Z,18.35
2022-09-12T09:41:34.100Z,18.68
2022-09-12T09:44:01.067Z,18.70
2022-09-12T09:46:28.320Z,18.60
2022-09-12T09:48:58.627Z,18.52
2022-09-12T09:51:33.925Z,19.00
2022-09-12T09:54:09.431Z,18.96
2022-09-12T09:56:40.827Z,19.06
2022-09-12T09:59:16.130Z,19.23
2022-09-12T10:01:51.483Z,19.27
2022-09-12T10:04:32.053Z,19.21
2022-09-12T10:07:01.140Z,19.63
2022-09-12T10:09:29.442Z,19.56
2022-09-12T10:11:56.977Z,19.51
2022-09-12T10:14:36.827Z,19.54
2022-09-12T10:17:28.691Z,20.07
2022-09-12T10:20:19.950Z,19.97
2022-09-12T10:22:47.617Z,20.11
2022-09-12T10:25:18.643Z,20.32
2022-09-12T10:27:52.131Z,20.25
2022-09-12T10:30:21.623Z,20.08
2022-09-12T10:32:51.505Z,20.22
2022-09-12T10:35:42.342Z,20.60
2022-09-12T10:38:18.150Z,20.34
2022-09-12T10:40:44.809Z,20.58
2022-09-12T10:43:25.987Z,20.63
2022-09-12T10:45:57.434Z,20.57
2022-09-12T10:48:33.481Z,20.89
2022-09-12T10:51:02.029Z,20.69
2022-09-12T10:53:40.894Z,20.73
2022-09-12T10:56:10.814Z,20.75
2022-09-12T10:58:46.396Z,20.80
2022-09-12T11:01:34.291Z,20.92
2022-09-12T11:04:06.778Z,21.05
2022-09-12T11:07:15.103Z,20.77
2022-09-12T11:10:00.262Z,21.37
2022-09-12T11:12:57.946Z,21.48
2022-09-12T11:15:39.031Z,22.38
2022-09-12T11:18:11.248Z,22.30
2022-09-12T11:21:12.743Z,22.21
2022-09-12T11:24:03.196Z,21.86
2022-09-12T11:26:50.833Z,22.50
2022-09-12T11:29:41.886Z,22.16
2022-09-12T11:32:26.550Z,23.07
2022-09-12T11:35:21.019Z,22.75
2022-09-12T11:38:07.529Z,21.88
2022-09-12T11:40:49.152Z,22.62
2022-09-12T11:43:39.756Z,22.80
2022-09-12T11:46:39.576Z,23.36
2022-09-12T11:49:15.725Z,23.14
2022-09-12T11:51:50.995Z,23.21
2022-09-12T11:54:33.859Z,23.42
2022-09-12T11:57:11.602Z,24.14
2022-09-12T11:59:52.698Z,24.40
2022-09-12T12:02:27.985Z,24.26
2022-09-12T12:05:17.734Z,25.47
2022-09-12T12:07:51.210Z,25.64
2022-09-12T12:10:48.777Z,26.05
2022-09-12T12:13:15.115Z,25.50
2022-09-12T12:15:48.534Z,26.74
2022-09-12T12:18:23.116Z,27.06
2022-09-12T12:20:50.741Z,26.31
2022-09-12T12:23:28.630Z,25.92
2022-09-12T12:26:00.706Z,25.60
2022-09-12T12:28:42.440Z,25.57
2022-09-12T12:31:10.773Z,24.48
2022-09-12T12:33:37.287Z,25.23
2022-09-12T12:36:09.215Z,25.39
2022-09-12T12:38:38.248Z,25.19
2022-09-12T12:41:16.825Z,24.40
2022-09-12T12:43:53.671Z,25.16
2022-09-12T12:46:22.629Z,24.98
2022-09-12T12:48:54.931Z,24.61
2022-09-12T12:51:33.098Z,24.96
2022-09-12T12:54:02.991Z,25.30
2022-09-12T12:56:39.164Z,24.95
2022-09-12T12:59:17.641Z,24.59
2022-09-12T13:01:51.511Z,24.59
2022-09-12T13:04:24.340Z,25.25
2022-09-12T13:06:59.660Z,24.61
2022-09-12T13:09:32.067Z,24.44
2022-09-12T13:11:58.602Z,23.90
2022-09-12T13:14:43.438Z,24.12
2022-09-12T13:17:22.703Z,24.05
2022-09-12T13:19:56.705Z,23.52
2022-09-12T13:22:48.471Z,24.30
2022-09-12T13:25:21.541Z,24.14
2022-09-12T13:28:01.846Z,24.25
2022-09-12T13:30:43.297Z,23.73
2022-09-12T13:33:23.856Z,23.84
2022-09-12T13:36:05.062Z,24.00
2022-09-12T13:39:14.120Z,23.93
2022-09-12T13:42:21.579Z,23.95
2022-09-12T13:44:52.180Z,23.63
2022-09-12T13:47:28.063Z,23.56
2022-09-12T13:49:54.950Z,23.22
2022-09-12T13:52:28.359Z,23.86
2022-09-12T13:54:58.337Z,24.13
2022-09-12T13:57:30.649Z,23.92
2022-09-12T13:59:58.467Z,23.63
2022-09-12T14:02:28.771Z,23.89
2022-09-12T14:05:09.066Z,23.82
2022-09-12T14:07:56.273Z,23.90
2022-09-12T14:10:33.168Z,23.35
2022-09-12T14:13:05.565Z,23.23
2022-09-12T14:15:36.202Z,23.00
2022-09-12T14:18:05.881Z,22.67
2022-09-12T14:20:36.832Z,22.73
2022-09-12T14:23:18.095Z,22.81
2022-09-12T14:25:47.686Z,22.93
2022-09-12T14:28:22.797Z,22.76
2022-09-12T14:31:21.397Z,22.85
2022-09-12T14:33:53.754Z,23.20
2022-09-12T14:36:24.924Z,23.16
2022-09-12T14:39:00.058Z,22.98
2022-09-12T14:41:32.435Z,22.81
2022-09-12T14:44:01.529Z,22.72
2022-09-12T14:46:31.935Z,22.73
2022-09-12T14:49:15.815Z,22.51
2022-09-12T14:51:51.660Z,22.46
2022-09-12T14:54:27.501Z,22.39
2022-09-12T14:57:02.664Z,22.75
2022-09-12T14:59:29.007Z,22.79
2022-09-12T15:02:13.493Z,22.53
2022-09-12T15:04:42.300Z,22.75
2022-09-12T15:07:33.848Z,22.61
2022-09-12T15:10:03.318Z,22.93
2022-09-12T15:12:29.808Z,22.65
2022-09-12T15:15:03.306Z,22.55
2022-09-12T15:17:29.715Z,22.70
2022-09-12T15:19:56.119Z,22.26
2022-09-12T15:22:24.447Z,22.16
2022-09-12T15:24:50.938Z,22.54
2022-09-12T15:27:17.374Z,22.47
2022-09-12T15:29:43.790Z,22.53
2022-09-12T15:32:22.490Z,22.51
2022-09-12T15:34:48.883Z,22.41
2022-09-12T15:37:15.768Z,22.43
2022-09-12T15:39:42.207Z,22.39
2022-09-12T15:42:11.618Z,22.25
2022-09-12T15:44:38.021Z,22.46
2022-09-12T15:47:04.926Z,22.37
2022-09-12T15:49:32.030Z,22.22
2022-09-12T15:51:59.600Z,22.00
2022-09-12T15:54:26.014Z,22.09
2022-09-12T15:56:52.423Z,22.15
2022-09-12T15:59:18.879Z,22.02
2022-09-12T16:01:45.416Z,22.09
2022-09-12T16:04:23.876Z,22.04
2022-09-12T16:06:51.415Z,21.99
2022-09-12T16:09:17.875Z,22.01
2022-09-12T16:11:47.392Z,22.09
2022-09-12T16:14:15.598Z,22.06
2022-09-12T16:16:43.522Z,22.07
2022-09-12T16:19:12.496Z,22.06
2022-09-12T16:21:39.008Z,21.85
2022-09-12T16:24:05.473Z,21.86
2022-09-12T16:26:31.958Z,21.61
2022-09-12T16:28:58.936Z,21.63
2022-09-12T16:31:26.746Z,21.44
2022-09-12T16:33:53.551Z,21.37
2022-09-12T16:36:21.748Z,21.32
2022-09-12T16:38:50.424Z,21.19
2022-09-12T16:41:18.879Z,21.29
2022-09-12T16:43:45.658Z,21.17
2022-09-12T16:46:15.928Z,21.16
2022-09-12T16:48:50.988Z,21.07
2022-09-12T16:51:23.760Z,20.94
2022-09-12T16:53:50.949Z,20.77
2022-09-12T16:56:18.449Z,20.79
2022-09-12T16:58:45.505Z,20.76
2022-09-12T17:01:18.023Z,20.59
2022-09-12T17:03:44.519Z,20.56
2022-09-12T17:06:13.889Z,20.44
2022-09-12T17:08:42.866Z,20.18
2022-09-12T17:11:14.977Z,20.12
2022-09-12T17:14:03.112Z,20.06
2022-09-12T17:16:29.324Z,19.82
2022-09-12T17:18:55.770Z,19.70
2022-09-12T17:21:22.627Z,19.56
2022-09-12T17:23:49.811Z,19.35
2022-09-12T17:26:16.909Z,19.31
2022-09-12T17:28:43.911Z,19.15
2022-09-12T17:31:12.796Z,19.09
2022-09-12T17:33:39.856Z,18.95
2022-09-12T17:36:11.144Z,18.81
2022-09-12T17:38:39.772Z,18.78
2022-09-12T17:41:17.990Z,18.61
2022-09-12T17:43:56.587Z,18.49
2022-09-12T17:46:25.231Z,18.36
2022-09-12T17:48:56.847Z,18.22
2022-09-12T17:51:25.821Z,18.11
2022-09-12T17:53:59.070Z,17.96
2022-09-12T17:56:27.981Z,17.87
2022-09-12T17:58:55.766Z,17.82
2022-09-12T18:01:40.907Z,17.72
2022-09-12T18:04:07.375Z,17.60
2022-09-12T18:06:34.025Z,17.53
2022-09-12T18:09:02.347Z,17.46
2022-09-12T18:11:29.443Z,17.35
2022-09-12T18:13:57.497Z,17.25
2022-09-12T18:16:23.912Z,17.23
2022-09-12T18:18:51.107Z,17.18
2022-09-12T18:21:18.445Z,17.08
2022-09-12T18:23:44.885Z,16.97
2022-09-12T18:26:13.318Z,16.92
2022-09-12T18:28:42.071Z,16.89
2022-09-12T18:31:21.121Z,16.78
2022-09-12T18:33:48.114Z,16.73
2022-09-12T18:36:16.373Z,16.64
2022-09-12T18:38:43.580Z,16.56
2022-09-12T18:41:12.989Z,16.54
2022-09-12T18:43:39.489Z,16.49
2022-09-12T18:46:08.566Z,16.49
2022-09-12T18:48:35.719Z,16.44
2022-09-12T18:51:08.001Z,16.36
2022-09-12T18:53:35.399Z,16.35
2022-09-12T18:56:08.599Z,16.31
2022-09-12T18:58:44.694Z,16.26
2022-09-12T19:01:17.084Z,16.14
2022-09-12T19:03:44.257Z,16.14
2022-09-12T19:06:17.810Z,16.08
2022-09-12T19:08:45.618Z,16.04
2022-09-12T19:11:12.659Z,15.97
2022-09-12T19:13:41.398Z,15.90
2022-09-12T19:16:10.244Z,15.91
2022-09-12T19:18:38.687Z,15.90
2022-09-12T19:21:06.645Z,15.81
2022-09-12T19:23:35.328Z,15.77
2022-09-12T19:26:05.610Z,15.76
2022-09-12T19:28:32.694Z,15.76
2022-09-12T19:30:59.494Z,15.77
2022-09-12T19:33:26.212Z,15.71
2022-09-12T19:35:52.722Z,15.70
2022-09-12T19:38:19.230Z,15.60
2022-09-12T19:40:55.752Z,15.55
2022-09-12T19:43:22.163Z,15.53
2022-09-12T19:45:48.560Z,15.49
2022-09-12T19:48:17.018Z,15.46
2022-09-12T19:50:43.574Z,15.40
2022-09-12T19:53:09.994Z,15.31
2022-09-12T19:55:36.771Z,15.40
2022-09-12T19:58:03.666Z,15.35
2022-09-12T20:00:30.089Z,15.34
2022-09-12T20:02:56.486Z,15.23
2022-09-12T20:05:22.865Z,15.21
2022-09-12T20:07:49.304Z,15.16
2022-09-12T20:10:15.932Z,15.12
2022-09-12T20:12:42.339Z,15.11
2022-09-12T20:15:09.234Z,15.02
2022-09-12T20:17:35.801Z,14.91
2022-09-12T20:20:02.280Z,14.86
2022-09-12T20:22:28.779Z,14.79
2022-09-12T20:24:55.219Z,14.75
2022-09-12T20:27:21.867Z,14.72
2022-09-12T20:29:48.266Z,14.65
2022-09-12T20:32:14.670Z,14.66
2022-09-12T20:34:41.083Z,14.62
2022-09-12T20:37:07.511Z,14.56
2022-09-12T20:39:34.450Z,14.52
2022-09-12T20:42:00.864Z,14.53
2022-09-12T20:44:27.598Z,14.53
2022-09-12T20:46:54.044Z,14.44
2022-09-12T20:49:20.879Z,14.46
2022-09-12T20:51:48.404Z,14.40
2022-09-12T20:54:15.059Z,14.40
2022-09-12T20:56:42.058Z,14.37
2022-09-12T20:59:11.710Z,14.31
2022-09-12T21:01:38.892Z,14.26
2022-09-12T21:04:05.437Z,14.25
2022-09-12T21:06:31.953Z,14.28
2022-09-12T21:08:59.761Z,14.17
2022-09-12T21:11:27.593Z,14.13
2022-09-12T21:13:54.852Z,14.11
2022-09-12T21:16:22.864Z,14.06
2022-09-12T21:18:55.241Z,14.07
2022-09-12T21:21:22.146Z,14.04
2022-09-12T21:23:50.626Z,13.99
2022-09-12T21:26:18.193Z,13.98
2022-09-12T21:28:44.631Z,13.96
2022-09-12T21:31:11.114Z,13.95
2022-09-12T21:33:37.589Z,13.92
2022-09-12T21:36:05.603Z,13.86
2022-09-12T21:38:32.753Z,13.91
2022-09-12T21:41:07.703Z,13.79
2022-09-12T21:43:34.719Z,13.69
2022-09-12T21:46:01.640Z,13.73
2022-09-12T21:48:28.718Z,13.70
2022-09-12T21:50:55.167Z,13.65
2022-09-12T21:53:21.993Z,13.60
2022-09-12T21:55:48.561Z,13.58
2022-09-12T21:58:15.034Z,13.52
2022-09-12T22:00:42.228Z,13.60
2022-09-12T22:03:10.447Z,13.57
2022-09-12T22:05:40.287Z,13.49
2022-09-12T22:08:08.303Z,13.49
2022-09-12T22:10:35.161Z,13.38
2022-09-12T22:13:02.396Z,13.37
2022-09-12T22:15:44.366Z,13.34
2022-09-12T22:18:11.402Z,13.37
2022-09-12T22:20:37.823Z,13.36
2022-09-12T22:23:25.033Z,13.24
2022-09-12T22:25:55.048Z,13.26
2022-09-12T22:28:21.565Z,13.12
2022-09-12T22:30:48.588Z,13.14
2022-09-12T22:33:15.489Z,13.06
2022-09-12T22:35:42.465Z,13.06
2022-09-12T22:38:09.193Z,13.00
2022-09-12T22:40:35.762Z,12.96
2022-09-12T22:43:02.319Z,12.94
2022-09-12T22:45:28.816Z,12.94
2022-09-12T22:47:59.170Z,12.87
2022-09-12T22:50:27.665Z,12.87
2022-09-12T22:52:54.150Z,12.87
2022-09-12T22:55:20.587Z,12.89
2022-09-12T22:57:47.048Z,12.85
2022-09-12T23:00:14.165Z,12.79
2022-09-12T23:02:40.619Z,12.74
2022-09-12T23:05:07.223Z,12.68
2022-09-12T23:07:33.707Z,12.69
2022-09-12T23:10:00.217Z,12.74
2022-09-12T23:12:26.661Z,12.69
2022-09-12T23:14:53.042Z,12.64
2022-09-12T23:17:19.431Z,12.65
2022-09-12T23:19:45.834Z,12.68
2022-09-12T23:22:12.341Z,12.65
2022-09-12T23:24:38.797Z,12.62
2022-09-12T23:27:05.987Z,12.68
2022-09-12T23:29:34.417Z,12.65
2022-09-12T23:32:02.274Z,12.62
2022-09-12T23:34:29.224Z,12.53
2022-09-12T23:36:56.277Z,12.56
2022-09-12T23:39:23.390Z,12.45
2022-09-12T23:41:50.377Z,12.49
2022-09-12T23:44:16.848Z,12.42
2022-09-12T23:46:43.314Z,12.46
2022-09-12T23:49:09.706Z,12.38
2022-09-12T23:51:36.173Z,12.35
2022-09-12T23:54:02.745Z,12.32
2022-09-12T23:56:29.159Z,12.32
2022-09-12T23:58:55.580Z,12.28
